Heathsville, Illinois
Current Conditions -  °F | °C
As of 9:55 PM on Saturday 25 Oct 2014 (Local Time) from KRSV Reporting Station
Clear Clear  
Wind Chill: 60°   Ceiling: Unl
Heat Index: 60°   Visibility: 10mi
Dew Point: 51°   Wind: 3mph
Humidity: 72%   Direction: 300°WNW
Pressure: 30"   Gusts: NA
Location:  38.904°N, 87.665°W
Report Text: KRSV 260255Z AUTO 30003KT 10SM CLR 16/11 A3000 RMK AO2 T01570106
Loading
Personal Weather Stations






























Interactive Weather Map
Tropical Storm Tracking
New forecast layout! Learn more

10-Day Weather Forecast

Advertisements
Track Severe Weather on mobile